NCAR-RAP Real-Time Weather Data

Output produced by METARs form (12 August 2020  17:19 UTC)
found at http://weather.rap.ucar.edu/surface/
 
KNEW 121653Z 36005KT 10SM CLR 33/26 A3004 RMK AO2 LTG DSNT E AND S SLP165 T03330256
KNEW 121553Z 34008KT 10SM CLR 33/26 A3004 RMK AO2 SLP166 T03280256
KNEW 121453Z 32007KT 10SM CLR 31/26 A3004 RMK AO2 SLP165 T03110256 51020
KNEW 121353Z 30004KT 10SM CLR 31/25 A3003 RMK AO2 SLP161 T03060250
KNEW 121253Z 25004KT 10SM CLR 29/24 A3001 RMK AO2 SLP154 T02940244
KNEW 121153Z AUTO 24006KT 10SM CLR 28/23 A2998 RMK AO2 SLP145 70023 T02830233 10294 20267 55006 TSNO
KNEW 121053Z AUTO 23010KT 10SM CLR 28/23 A2997 RMK AO2 SLP142 T02780233 TSNO
KNEW 120953Z AUTO 18010KT 10SM CLR 27/23 A2998 RMK AO2 SLP144 T02720228 TSNO
KNEW 120853Z AUTO 14014KT 10SM SCT034 27/24 A3000 RMK AO2 LTG DSNT SE AND S SLP151 T02720239 56004
KNEW 120841Z AUTO 14015KT 10SM VCTS FEW030 28/24 A3000 RMK AO2 LTG DSNT E-S T02780239
KNEW 120753Z AUTO 00000KT 10SM BKN060 29/24 A3000 RMK AO2 LTG DSNT E AND SE SLP154 T02940244
KNEW 120653Z AUTO 22005KT 10SM CLR 28/23 A3000 RMK AO2 SLP153 T02830233
KNEW 120553Z AUTO 16004KT 10SM FEW090 27/22 A3001 RMK AO2 SLP156 60023 T02720222 10333 20272 403500272 55007
KNEW 120453Z AUTO 22005KT 10SM SCT065 OVC100 28/21 A3001 RMK AO2 RAB07E26 SLP154 P0000 T02780211
KNEW 120353Z AUTO 24007KT 10SM SCT100 SCT120 28/22 A3001 RMK AO2 WSHFT 0240 RAE05 TSE09 SLP156 P0000 T02780217
KNEW 120344Z AUTO 22008KT 10SM SCT100 BKN120 28/22 A3001 RMK AO2 WSHFT 0240 RAE05 TSE09 P0000 T02780217
KNEW 120315Z AUTO 26019KT 10SM VCTS FEW110 29/23 A3002 RMK AO2 WSHFT 0240 LTG DSNT W AND NW RAE05 TSE09 P0000 T02890233
KNEW 120300Z AUTO 27010G25KT 10SM -TSRA FEW045 FEW055 BKN110 29/22 A3002 RMK AO2 WSHFT 0240 LTG DSNT SW-NW P0000 T02940222
KNEW 120253Z AUTO 31022KT 10SM -TSRA FEW045 FEW055 SCT100 29/23 A3003 RMK AO2 WSHFT 0239 LTG DSNT SW-NW RAB52 TSB0156B46 SLP163 P0000 60023 T02940233 51018
KNEW 120231Z AUTO 21007KT 10SM VCTS CLR 28/24 A3002 RMK AO2 LTG DSNT W AND NW TSB0156 T02830239
KNEW 120217Z AUTO 19008KT 10SM CLR 28/24 A3001 RMK AO2 LTG DSNT SE AND NW TSB0156 T02830244
KNEW 120202Z AUTO 19010KT 10SM TS CLR 28/24 A3001 RMK AO2 LTG DSNT ALQDS TSB0156 T02830244
KNEW 120153Z AUTO 18009KT 10SM VCTS FEW100 28/24 A3001 RMK AO2 LTG DSNT ALQDS RAE40 SLP154 P0023 T02830244
KNEW 120116Z AUTO 18016KT 3SM +RA BKN034 BKN055 OVC110 28/24 A2999 RMK AO2 LTG DSNT SE AND S AND NW P0020 T02830244
KNEW 120108Z AUTO 16011KT 2SM +RA BKN029 BKN038 OVC060 28/23 A2999 RMK AO2 LTG DSNT SE AND NW P0016 T02780233
KNEW 120104Z AUTO 18011KT 3SM +RA BKN035 BKN046 OVC060 28/24 A2999 RMK AO2 LTG DSNT SE AND S AND NW P0011 T02780239
KNEW 120053Z AUTO 19017G22KT 8SM -TSRA SCT038 BKN048 BKN060 29/24 A2998 RMK AO2 LTG DSNT SE AND S AND NW RAB53 TSB23B43 SLP146 P0000 T02890244
KNEW 120029Z AUTO 17012KT 10SM TS SCT065 32/23 A2997 RMK AO2 LTG DSNT SE TSB23 T03170233
KNEW 120012Z AUTO 14005KT 10SM VCTS BKN065 33/22 A2996 RMK AO2 LTG DSNT S T03330222
KNEW 112353Z AUTO 13005KT 10SM BKN065 33/22 A2995 RMK AO2 SLP136 T03330222 10350 20306 56007
KNEW 112253Z AUTO VRB03KT 10SM CLR 34/21 A2996 RMK AO2 SLP137 T03440211
KNEW 112153Z AUTO 17003KT 10SM CLR 33/23 A2995 RMK AO2 SLP137 T03280228
KNEW 112053Z AUTO 20004KT 10SM CLR 32/22 A2997 RMK AO2 LTG DSNT SE SLP143 T03170217 58022
KNEW 112000Z 22010KT 10SM FEW046 31/23 A3000 RMK AO2 LTG DSNT S T03110228
KNEW 111953Z 21011KT 10SM VCTS FEW046 32/23 A3000 RMK AO2 SLP153 T03170228
KNEW 111925Z 36005KT 10SM VCTS CLR 35/22 A3000 RMK AO2 LTG DSNT NE T03500217
KNEW 111853Z 35006KT 10SM CLR 34/23 A3002 RMK AO2 SLP159 T03440233
KNEW 111753Z 36006KT 10SM CLR 34/24 A3004 RMK AO2 SLP165 T03390239 10339 20300 58009
KNEW 111653Z 35006KT 10SM CLR 33/24 A3006 RMK AO2 SLP173 T03330244
KNEW 111553Z 32009KT 10SM CLR 32/25 A3007 RMK AO2 SLP176 T03220250
KNEW 111453Z 30007KT 10SM CLR 32/24 A3006 RMK AO2 SLP174 T03170239 53009
KNEW 111353Z 28008KT 10SM CLR 31/24 A3005 RMK AO2 SLP170 T03110239
KNEW 111253Z AUTO 27010KT 10SM CLR 31/24 A3005 RMK AO2 SLP168 T03060239
KNEW 111153Z AUTO 26008KT 10SM CLR 30/24 A3004 RMK AO2 SLP165 T03000239 10306 20294 51006
KNEW 111053Z AUTO 25007KT 10SM FEW060 29/23 A3004 RMK AO2 SLP165 T02940228
KNEW 110953Z AUTO 23007KT 9SM BKN049 29/23 A3002 RMK AO2 SLP160 T02940228
KNEW 110853Z AUTO 24007KT 9SM CLR 29/23 A3002 RMK AO2 SLP159 T02940233 56007
KNEW 110753Z AUTO 23007KT 9SM CLR 30/23 A3002 RMK AO2 SLP160 T03000233
KNEW 110653Z AUTO 23007KT 9SM CLR 30/23 A3003 RMK AO2 SLP161 T03000233
KNEW 110553Z AUTO 23008KT 9SM CLR 31/24 A3004 RMK AO2 SLP166 T03060239 10333 20294 403500278 53005
KNEW 110453Z AUTO 24009KT 9SM CLR 31/24 A3003 RMK AO2 SLP164 T03060239
KNEW 110353Z AUTO 23008KT 10SM CLR 31/24 A3003 RMK AO2 SLP162 T03060244
KNEW 110253Z AUTO 20007KT 10SM CLR 30/24 A3003 RMK AO2 SLP161 T03000244 53012
KNEW 110153Z AUTO 19006KT 10SM CLR 30/24 A3001 RMK AO2 SLP155 T03000244
KNEW 110053Z AUTO 19011KT 10SM FEW046 31/24 A3000 RMK AO2 SLP153 T03110239
KNEW 102353Z AUTO 23003KT 10SM CLR 33/23 A2999 RMK AO2 LTG DSNT S SLP149 T03330228 10350 20328 56016
KNEW 102342Z AUTO VRB05KT 10SM VCTS CLR 34/22 A3000 RMK AO2 LTG DSNT S AND SW T03390222
KNEW 102253Z AUTO 00000KT 10SM CLR 35/22 A3000 RMK AO2 SLP154 T03500217
KNEW 102153Z AUTO 33004KT 10SM CLR 35/22 A3002 RMK AO2 LTG DSNT SE SLP160 T03500222
KNEW 102053Z 01005KT 10SM CLR 35/22 A3004 RMK AO2 SLP166 T03500222 58026
KNEW 101953Z 34006KT 10SM CLR 34/23 A3006 RMK AO2 SLP174 T03440228
KNEW 101853Z 35006KT 10SM CLR 34/22 A3009 RMK AO2 LTG DSNT E SLP184 T03440222
KNEW 101753Z 35006KT 8SM CLR 33/24 A3012 RMK AO2 SLP192 T03280244 10328 20300 58004